TFM - Tactical Decision Aid
ID: Runway Winds: CIG/VIS Threshold:

KWRI - McGuire AFB, NJ, US

Updated at: 1902 UTC 26 Oct 2021
Latest TAF at: 1800 UTC 26 Oct 2021

TAF Board

Time1856Z 26/20Z 26/21Z 26/22Z 26/23Z 27/00Z 27/01Z 27/02Z 27/03Z 27/04Z 27/05Z 27/06Z 27/07Z 27/08Z>>
Type OBS PRVL PRVL PRVL PRVL PRVL PRVL PRVL PRVL PRVL PRVL PRVL PRVL PRVL
VIS 10 4.97 5.59 5.59 5.59 5.59 5.59 5.59 5.59 5.59 5.59 5.59 5.59 5.59
CIG 35 10 8 8 8 8 8 8 8 8 8 8 8 8
Cover BKN BKN OVC OVC OVC OVC OVC OVC OVC OVC OVC OVC OVC OVC
FltCat VFR MVFR IFR IFR IFR IFR IFR IFR IFR IFR IFR IFR IFR IFR
WX -DZ -DZ -SHRA -SHRA -SHRA -SHRA -SHRA -SHRA -SHRA -SHRA -SHRA -SHRA -SHRA -SHRA
WDir 280 300 320 320 320 320 320 320 320 320 320 320 320 320
WSpd 12 10 15 15 15 15 15 15 15 15 15 15 15 15
WGst -- -- 25 25 25 25 25 25 25 25 25 25 25 25

TDA Impact Legend

  None Marginal Slight Moderate High
Visibility (sm) > ≤X≤ <
Ceiling (100 ft) > ≤X≤ <
Wind Speed (kt) <15 15≤X<25 25≤X<30 ≥30
Wind Gust (kt) <15 15≤X<25 25≤X<35 ≥35
Weather No Wx Reported VCTS -TS,-FZRA TS,FZRA +TS,+FZRA
TAF
TAF KWRI 261800Z 2618/2724 30010KT 8000 -DZ BKN010 QNH2935INS
  BECMG 2621/2622 32015G25KT 9000 -SHRA OVC008 QNH2940INS
  BECMG 2711/2712 02015G25KT 9999 NSW OVC020 QNH2956INS
  BECMG 2715/2716 34010G20KT 9999 BKN020 QNH2965INS TX17/2618Z TN12/2700Z


METAR
KWRI 261856Z 28012KT 10SM -DZ SCT022 SCT026 BKN035 BKN190 18/14 A2936 RMK AO2A SLP941 T01790140
KWRI 261852Z 29010KT 10SM DZ SCT022 SCT026 BKN035 BKN044 BKN190 18/14 A2936 RMK DZB55 SLP941
KWRI 261756Z 27009KT 10SM BKN015 BKN036 19/15 A2936 RMK AO2A SLP941 60002 T01900145 10190 20139
KWRI 261706Z 25006KT 10SM OVC016 17/15 A2937 RMK AO2A SLP945
KWRI 261656Z 26007KT 10SM OVC014 17/14 A2937 RMK AO2A SLP945 T01700143
KWRI 261556Z 29010KT 10SM BKN010 16/14 A2940 RMK SLP955 P0000 T01560136
KWRI 261542Z 29010KT 10SM BKN008 15/14 A2940 RMK AO2A RAE12DZB12E40 SLP955